Time;durP1;ratioP1;P1;durP2;ratioP2;P2;SDS_P1;SDS_P2;PMS_P1;PMS_P2;Temp;Humidity;BMP_temperature;BMP_pressure;BME280_temperature;BME280_humidity;BME280_pressure;Samples;Min_cycle;Max_cycle;Signal;HPM_P1;HPM_P2
2023/03/15 00:00:54;;;;;;;0.10;0.10;;;8.20;99.90;;;;;;5083715;28;20641;-77
2023/03/15 00:03:23;;;;;;;0.10;0.10;;;8.10;99.90;;;;;;5096221;28;20547;-77
2023/03/15 00:05:51;;;;;;;0.10;0.10;;;8.20;99.90;;;;;;5102594;28;20039;-77
2023/03/15 00:08:17;;;;;;;1.90;1.80;;;8.10;99.90;;;;;;5090251;28;20032;-77
2023/03/15 00:10:44;;;;;;;0.80;0.40;;;8.10;99.90;;;;;;5088239;28;20032;-77
2023/03/15 00:13:11;;;;;;;1.08;0.80;;;8.10;99.90;;;;;;5096510;28;20034;-77
2023/03/15 00:15:47;;;;;;;0.10;0.10;;;8.00;99.90;;;;;;5095974;28;20027;-76
2023/03/15 00:18:13;;;;;;;0.75;0.40;;;8.10;99.90;;;;;;5097570;28;20032;-75
2023/03/15 00:20:39;;;;;;;1.98;1.55;;;8.20;99.90;;;;;;5095884;28;20084;-76
2023/03/15 00:23:05;;;;;;;0.43;0.43;;;8.20;99.90;;;;;;5094530;28;20032;-76
2023/03/15 00:25:30;;;;;;;0.10;0.10;;;8.10;99.90;;;;;;5093266;28;20024;-76
2023/03/15 00:27:56;;;;;;;0.50;0.50;;;8.20;99.90;;;;;;5073915;28;20094;-76
2023/03/15 00:30:22;;;;;;;2.72;1.90;;;8.20;99.90;;;;;;5087867;28;20522;-75
2023/03/15 00:32:47;;;;;;;1.40;1.30;;;8.20;99.90;;;;;;5091743;28;20066;-76
2023/03/15 00:35:13;;;;;;;1.10;1.05;;;8.20;99.90;;;;;;5091773;28;20714;-76
2023/03/15 00:37:39;;;;;;;3.97;1.27;;;8.20;99.90;;;;;;5092607;28;20107;-76
2023/03/15 00:40:06;;;;;;;0.38;0.38;;;8.20;99.90;;;;;;5076544;28;20059;-76
2023/03/15 00:42:32;;;;;;;0.35;0.35;;;8.20;99.90;;;;;;5077473;28;20186;-76
2023/03/15 00:44:58;;;;;;;1.02;1.02;;;8.20;99.90;;;;;;5083808;28;20024;-76
2023/03/15 00:47:24;;;;;;;1.80;1.70;;;8.20;99.90;;;;;;5087446;28;20036;-76
2023/03/15 00:49:50;;;;;;;0.97;0.90;;;8.20;99.90;;;;;;5086156;28;20027;-76
2023/03/15 00:52:17;;;;;;;0.73;0.73;;;8.20;99.90;;;;;;5088154;28;20090;-76
2023/03/15 00:54:43;;;;;;;0.95;0.90;;;8.20;99.90;;;;;;5076959;28;20073;-76
2023/03/15 00:57:09;;;;;;;0.20;0.20;;;8.20;99.90;;;;;;5102047;28;20491;-76
2023/03/15 00:59:35;;;;;;;2.20;1.08;;;8.30;99.90;;;;;;5093478;28;20036;-76
2023/03/15 01:02:01;;;;;;;0.50;0.50;;;8.20;99.90;;;;;;5104029;28;20031;-75
2023/03/15 01:04:27;;;;;;;2.08;1.48;;;8.20;99.90;;;;;;5104923;28;20056;-75
2023/03/15 01:06:53;;;;;;;1.15;0.75;;;8.20;99.90;;;;;;5099756;28;20101;-75
2023/03/15 01:09:18;;;;;;;2.90;1.08;;;8.20;99.90;;;;;;5095137;28;20625;-77
2023/03/15 01:11:44;;;;;;;3.00;0.68;;;8.20;99.90;;;;;;5081964;28;20016;-77
2023/03/15 01:14:10;;;;;;;1.83;1.73;;;8.10;99.90;;;;;;5075853;28;20023;-76
2023/03/15 01:16:36;;;;;;;1.45;1.27;;;8.20;99.90;;;;;;5087517;28;20111;-76
2023/03/15 01:19:02;;;;;;;0.52;0.52;;;8.20;99.90;;;;;;5098296;28;20098;-76
2023/03/15 01:21:27;;;;;;;0.20;0.20;;;8.10;99.90;;;;;;5083993;28;20115;-76
2023/03/15 01:23:53;;;;;;;2.05;0.98;;;8.10;99.90;;;;;;5106565;28;20029;-77
2023/03/15 01:26:19;;;;;;;1.83;1.60;;;8.10;99.90;;;;;;5087201;28;20043;-76
2023/03/15 01:28:45;;;;;;;0.40;0.40;;;8.00;99.90;;;;;;5099031;28;20027;-77
2023/03/15 01:31:20;;;;;;;3.03;1.80;;;8.00;99.90;;;;;;5099067;28;20035;-76
2023/03/15 01:33:46;;;;;;;1.90;1.45;;;8.00;99.90;;;;;;5079013;28;20285;-77
2023/03/15 01:36:12;;;;;;;4.30;1.65;;;8.10;99.90;;;;;;5105728;28;20039;-77
2023/03/15 01:38:38;;;;;;;1.03;1.03;;;8.20;99.90;;;;;;5099336;28;20063;-77
2023/03/15 01:41:04;;;;;;;0.35;0.35;;;8.10;99.90;;;;;;5100183;28;20054;-78
2023/03/15 01:43:31;;;;;;;2.70;2.53;;;8.10;99.90;;;;;;5085248;28;20094;-78
2023/03/15 01:46:15;;;;;;;;;;;8.00;99.90;;;;;;5096934;28;20434;-78
2023/03/15 01:48:46;;;;;;;0.75;0.75;;;8.20;99.90;;;;;;5099910;28;19915;-78
2023/03/15 01:51:33;;;;;;;3.83;1.58;;;8.10;99.90;;;;;;5074898;28;20043;-78
2023/03/15 01:54:20;;;;;;;0.10;0.10;;;8.00;99.90;;;;;;5094053;28;20052;-78
2023/03/15 01:56:51;;;;;;;0.20;0.20;;;8.00;99.90;;;;;;5092548;28;20036;-78
2023/03/15 01:59:24;;;;;;;6.10;1.73;;;7.80;99.90;;;;;;5084046;28;20040;-78
2023/03/15 02:01:53;;;;;;;0.47;0.28;;;7.80;99.90;;;;;;5081438;28;20031;-77
2023/03/15 02:04:24;;;;;;;0.40;0.40;;;7.90;99.90;;;;;;5100691;28;20048;-77
2023/03/15 02:06:57;;;;;;;0.15;0.15;;;8.10;99.90;;;;;;5101762;28;20502;-78
2023/03/15 02:09:49;;;;;;;2.17;0.40;;;8.00;99.90;;;;;;5091084;28;20043;-78
2023/03/15 02:12:16;;;;;;;0.25;0.25;;;8.00;99.90;;;;;;5087021;28;20028;-78
2023/03/15 02:14:43;;;;;;;;;;;8.00;99.90;;;;;;5096848;28;20043;-77
2023/03/15 02:17:08;;;;;;;0.90;0.63;;;7.90;99.90;;;;;;5095997;28;20732;-77
2023/03/15 02:19:44;;;;;;;0.20;0.20;;;7.90;99.90;;;;;;5098335;28;20027;-78
2023/03/15 02:22:29;;;;;;;0.47;0.47;;;7.90;99.90;;;;;;5090023;28;20085;-78
2023/03/15 02:25:21;;;;;;;0.30;0.30;;;7.80;99.90;;;;;;5091585;28;20041;-77
2023/03/15 02:27:47;;;;;;;1.52;0.90;;;7.80;99.90;;;;;;5069561;28;20587;-77
2023/03/15 02:30:13;;;;;;;0.20;0.20;;;7.70;99.90;;;;;;5104103;28;20032;-76
2023/03/15 02:32:40;;;;;;;1.58;1.17;;;7.70;99.90;;;;;;5095854;28;20032;-77
2023/03/15 02:35:06;;;;;;;0.10;0.10;;;7.70;99.90;;;;;;5103974;28;20081;-77
2023/03/15 02:37:31;;;;;;;0.10;0.10;;;7.70;99.90;;;;;;5098933;28;20057;-77
2023/03/15 02:39:57;;;;;;;0.45;0.45;;;7.80;99.90;;;;;;5097137;28;20028;-77
2023/03/15 02:42:23;;;;;;;0.30;0.30;;;7.80;99.90;;;;;;5097675;28;20035;-77
2023/03/15 02:44:50;;;;;;;0.20;0.20;;;7.70;99.90;;;;;;5095734;28;20032;-76
2023/03/15 02:47:21;;;;;;;0.10;0.10;;;7.70;99.90;;;;;;5089797;28;20043;-76
2023/03/15 02:49:51;;;;;;;1.77;1.10;;;7.60;99.90;;;;;;5101842;28;20034;-76
2023/03/15 02:52:17;;;;;;;0.10;0.10;;;7.60;99.90;;;;;;5089707;28;20027;-76
2023/03/15 02:54:42;;;;;;;0.20;0.20;;;7.60;99.90;;;;;;5098616;28;20029;-76
2023/03/15 02:57:10;;;;;;;0.10;0.10;;;7.60;99.90;;;;;;5095111;28;20089;-77
2023/03/15 02:59:35;;;;;;;0.10;0.10;;;7.70;99.90;;;;;;5101455;28;20110;-76
2023/03/15 03:02:02;;;;;;;0.10;0.10;;;7.70;99.90;;;;;;5101837;28;20036;-76
2023/03/15 03:04:27;;;;;;;0.70;0.70;;;7.80;99.90;;;;;;5067934;28;20040;-76
2023/03/15 03:06:53;;;;;;;0.10;0.10;;;7.90;99.90;;;;;;5080397;28;20749;-77
2023/03/15 03:09:19;;;;;;;0.10;0.10;;;7.90;99.90;;;;;;5073157;28;20067;-76
2023/03/15 03:11:45;;;;;;;0.40;0.40;;;7.90;99.90;;;;;;5053275;28;20059;-76
2023/03/15 03:14:12;;;;;;;0.10;0.10;;;7.90;99.90;;;;;;5078724;28;20032;-76
2023/03/15 03:16:39;;;;;;;0.10;0.10;;;7.90;99.90;;;;;;5062214;28;20026;-77
2023/03/15 03:19:05;;;;;;;0.10;0.10;;;7.80;99.90;;;;;;5082311;28;20039;-77
2023/03/15 03:21:31;;;;;;;0.20;0.20;;;7.70;99.90;;;;;;5080838;28;20028;-77
2023/03/15 03:23:56;;;;;;;0.10;0.10;;;7.60;99.90;;;;;;5080731;28;20028;-77
2023/03/15 03:26:26;;;;;;;0.10;0.10;;;7.60;99.90;;;;;;5081035;28;20620;-77
2023/03/15 03:28:53;;;;;;;0.10;0.10;;;7.50;99.90;;;;;;5061880;28;20060;-77
2023/03/15 03:31:23;;;;;;;0.80;0.45;;;7.50;99.90;;;;;;5074115;28;20039;-77
2023/03/15 03:33:50;;;;;;;0.10;0.10;;;7.50;99.90;;;;;;5083185;28;20554;-77
2023/03/15 03:36:15;;;;;;;0.10;0.10;;;7.30;99.90;;;;;;5082878;28;20102;-77
2023/03/15 03:38:43;;;;;;;0.10;0.10;;;7.30;99.90;;;;;;5076309;28;20297;-78
2023/03/15 03:41:10;;;;;;;0.32;0.32;;;7.30;99.90;;;;;;5077880;28;20028;-78
2023/03/15 03:43:36;;;;;;;0.32;0.32;;;7.10;99.90;;;;;;5059877;28;20036;-77
2023/03/15 03:46:04;;;;;;;0.10;0.10;;;6.90;99.90;;;;;;5059980;28;20067;-77
2023/03/15 03:48:30;;;;;;;1.20;1.10;;;6.80;99.90;;;;;;5073682;28;20551;-77
2023/03/15 03:50:56;;;;;;;2.53;2.43;;;6.60;99.90;;;;;;5060161;28;20029;-78
2023/03/15 03:53:22;;;;;;;0.10;0.10;;;6.70;99.90;;;;;;5070148;28;20275;-77
2023/03/15 03:55:48;;;;;;;0.15;0.15;;;6.80;99.90;;;;;;5071325;28;20033;-77
2023/03/15 03:58:13;;;;;;;0.35;0.35;;;6.70;99.90;;;;;;5077918;28;20035;-77
2023/03/15 04:00:40;;;;;;;0.57;0.57;;;6.80;99.90;;;;;;5069081;28;20017;-77
2023/03/15 04:03:07;;;;;;;0.10;0.10;;;6.90;99.90;;;;;;5063700;28;20051;-77
2023/03/15 04:05:33;;;;;;;0.25;0.25;;;6.90;99.90;;;;;;5092481;28;20031;-76
2023/03/15 04:07:58;;;;;;;0.20;0.20;;;7.00;99.90;;;;;;5089694;28;20057;-76
2023/03/15 04:10:27;;;;;;;0.10;0.10;;;7.00;99.90;;;;;;5084741;28;20558;-77
2023/03/15 04:12:54;;;;;;;0.20;0.20;;;7.00;99.90;;;;;;5092689;28;20106;-77
2023/03/15 04:15:23;;;;;;;0.10;0.10;;;7.00;99.90;;;;;;5093486;28;20026;-77
2023/03/15 04:17:54;;;;;;;1.45;1.08;;;6.90;99.90;;;;;;5097242;28;20056;-77
2023/03/15 04:20:21;;;;;;;0.10;0.10;;;6.80;99.90;;;;;;5092782;28;20020;-77
2023/03/15 04:22:48;;;;;;;0.10;0.10;;;6.70;99.90;;;;;;5091486;28;20114;-76
2023/03/15 04:25:14;;;;;;;;;;;6.60;99.90;;;;;;5097701;28;20028;-76
2023/03/15 04:27:40;;;;;;;0.10;0.10;;;6.60;99.90;;;;;;5089883;28;20793;-76
2023/03/15 04:30:07;;;;;;;0.20;0.20;;;6.60;99.90;;;;;;5078093;28;20042;-76
2023/03/15 04:32:33;;;;;;;0.17;0.17;;;6.50;99.90;;;;;;5102139;28;20095;-76
2023/03/15 04:34:58;;;;;;;0.47;0.47;;;6.50;99.90;;;;;;5096151;28;20035;-76
2023/03/15 04:37:24;;;;;;;0.25;0.25;;;6.40;99.90;;;;;;5086994;28;20846;-76
2023/03/15 04:39:51;;;;;;;0.20;0.20;;;6.60;99.90;;;;;;5096458;28;20036;-76
2023/03/15 04:42:17;;;;;;;0.10;0.10;;;6.60;99.90;;;;;;5096234;28;20027;-76
2023/03/15 04:44:43;;;;;;;0.10;0.10;;;6.60;99.90;;;;;;5099340;28;20030;-77
2023/03/15 04:47:08;;;;;;;0.10;0.10;;;6.50;99.90;;;;;;5093994;28;20048;-77
2023/03/15 04:49:34;;;;;;;0.10;0.10;;;6.40;99.90;;;;;;5092687;28;20130;-77
2023/03/15 04:52:00;;;;;;;0.75;0.75;;;6.30;99.90;;;;;;5097554;28;20493;-77
2023/03/15 04:54:26;;;;;;;0.10;0.10;;;6.30;99.90;;;;;;5094962;28;20481;-78
2023/03/15 04:56:52;;;;;;;0.10;0.10;;;6.30;99.90;;;;;;5086422;28;20097;-77
2023/03/15 04:59:17;;;;;;;0.32;0.32;;;6.40;99.90;;;;;;5074743;28;20024;-77
2023/03/15 05:01:43;;;;;;;0.10;0.10;;;6.40;99.90;;;;;;5098710;28;20119;-77
2023/03/15 05:04:09;;;;;;;0.10;0.10;;;6.40;99.90;;;;;;5091531;28;20708;-77
2023/03/15 05:06:34;;;;;;;0.10;0.10;;;6.30;99.90;;;;;;5099004;28;20115;-76
2023/03/15 05:09:00;;;;;;;1.35;0.80;;;6.30;99.90;;;;;;5093544;28;20062;-77
2023/03/15 05:11:26;;;;;;;0.10;0.10;;;6.30;99.90;;;;;;5078476;28;20028;-76
2023/03/15 05:13:52;;;;;;;0.10;0.10;;;6.30;99.90;;;;;;5093200;28;20028;-76
2023/03/15 05:16:17;;;;;;;0.10;0.10;;;6.30;99.90;;;;;;5097764;28;20027;-76
2023/03/15 05:18:44;;;;;;;1.02;0.70;;;6.50;99.90;;;;;;5091008;28;20079;-78
2023/03/15 05:21:11;;;;;;;0.20;0.20;;;6.50;99.90;;;;;;5082456;28;20115;-80
2023/03/15 05:23:37;;;;;;;0.10;0.10;;;6.50;99.90;;;;;;5072547;28;20519;-78
2023/03/15 05:26:03;;;;;;;0.35;0.35;;;6.50;99.90;;;;;;5096002;28;20107;-77
2023/03/15 05:28:29;;;;;;;0.80;0.80;;;6.50;99.90;;;;;;5097769;28;20027;-78
2023/03/15 05:30:54;;;;;;;0.75;0.75;;;6.40;99.90;;;;;;5072501;28;20031;-77
2023/03/15 05:33:20;;;;;;;1.27;1.17;;;6.30;99.90;;;;;;5082128;28;20066;-77
2023/03/15 05:35:47;;;;;;;0.10;0.10;;;6.30;99.90;;;;;;5100454;28;20028;-77
2023/03/15 05:38:13;;;;;;;0.10;0.10;;;6.30;99.90;;;;;;5083070;28;20108;-77
2023/03/15 05:40:43;;;;;;;0.10;0.10;;;6.20;99.90;;;;;;5077160;28;20402;-78
2023/03/15 05:43:10;;;;;;;0.10;0.10;;;6.00;99.90;;;;;;5078558;28;20035;-77
2023/03/15 05:45:36;;;;;;;0.50;0.50;;;5.90;99.90;;;;;;5099583;28;20379;-77
2023/03/15 05:48:02;;;;;;;0.10;0.10;;;5.80;99.90;;;;;;5099490;28;20301;-78
2023/03/15 05:50:28;;;;;;;0.55;0.40;;;5.80;99.90;;;;;;5104427;28;20067;-77
2023/03/15 05:52:55;;;;;;;0.10;0.10;;;5.80;99.90;;;;;;5080293;28;20059;-78
2023/03/15 05:55:21;;;;;;;0.10;0.10;;;5.70;99.90;;;;;;5074130;28;20036;-79
2023/03/15 05:57:47;;;;;;;0.10;0.10;;;5.70;99.90;;;;;;5102697;28;20034;-78
2023/03/15 06:00:14;;;;;;;0.45;0.45;;;5.70;99.90;;;;;;5097633;28;20130;-78
2023/03/15 06:02:44;;;;;;;0.10;0.10;;;5.60;99.90;;;;;;5103320;28;20050;-79
2023/03/15 06:05:10;;;;;;;0.10;0.10;;;5.70;99.90;;;;;;5079735;28;20066;-79
2023/03/15 06:07:36;;;;;;;5.28;3.22;;;5.70;99.90;;;;;;5094859;28;20139;-80
2023/03/15 06:10:02;;;;;;;0.45;0.45;;;5.70;99.90;;;;;;5098130;28;20367;-79
2023/03/15 06:12:27;;;;;;;0.20;0.20;;;5.50;99.90;;;;;;5079980;28;20031;-77
2023/03/15 06:14:53;;;;;;;0.10;0.10;;;5.50;99.90;;;;;;5090937;28;20023;-80
2023/03/15 06:17:19;;;;;;;6.78;0.82;;;5.40;99.90;;;;;;5071563;28;20028;-80
2023/03/15 06:19:44;;;;;;;1.48;1.38;;;5.50;99.90;;;;;;5091969;28;20024;-81
2023/03/15 06:22:10;;;;;;;0.10;0.10;;;5.50;99.90;;;;;;5092125;28;20027;-82
2023/03/15 06:24:36;;;;;;;0.95;0.95;;;5.50;99.90;;;;;;5088436;28;20836;-80
2023/03/15 06:27:02;;;;;;;0.30;0.30;;;5.50;99.90;;;;;;5087994;28;20039;-82
2023/03/15 06:29:27;;;;;;;0.70;0.70;;;5.50;99.90;;;;;;5073684;28;20828;-80
2023/03/15 06:31:53;;;;;;;0.20;0.20;;;5.50;99.90;;;;;;5095135;28;20911;-78
2023/03/15 06:34:19;;;;;;;5.47;0.50;;;5.60;99.90;;;;;;5099970;28;20032;-80
2023/03/15 06:36:46;;;;;;;0.10;0.10;;;5.50;99.90;;;;;;5102013;28;20386;-78
2023/03/15 06:39:12;;;;;;;0.10;0.10;;;5.50;99.90;;;;;;5095704;28;20066;-84
2023/03/15 06:41:40;;;;;;;0.10;0.10;;;5.50;99.90;;;;;;5093275;28;20104;-84
2023/03/15 06:44:06;;;;;;;0.10;0.10;;;5.60;99.90;;;;;;5083678;28;20024;-85
2023/03/15 06:46:33;;;;;;;0.68;0.68;;;5.90;99.90;;;;;;5084903;28;20035;-84
2023/03/15 06:48:58;;;;;;;0.20;0.20;;;6.80;99.90;;;;;;5103869;28;20047;-82
2023/03/15 06:51:24;;;;;;;0.15;0.15;;;7.50;99.90;;;;;;5103355;28;20028;-83
2023/03/15 06:53:50;;;;;;;0.20;0.20;;;7.40;99.90;;;;;;5085456;28;20546;-83
2023/03/15 06:56:16;;;;;;;0.15;0.15;;;7.80;99.90;;;;;;5094385;28;20036;-83
2023/03/15 06:58:42;;;;;;;0.20;0.20;;;8.60;99.90;;;;;;5104240;28;20015;-84
2023/03/15 07:01:10;;;;;;;0.10;0.10;;;8.70;99.90;;;;;;5082347;28;20042;-84
2023/03/15 07:03:36;;;;;;;0.10;0.10;;;9.20;99.90;;;;;;5102815;28;20059;-81
2023/03/15 07:06:02;;;;;;;0.10;0.10;;;9.00;99.90;;;;;;5086545;28;20023;-84
2023/03/15 07:08:28;;;;;;;0.10;0.10;;;8.90;99.90;;;;;;5102863;28;20058;-86
2023/03/15 07:10:53;;;;;;;1.55;1.45;;;8.30;99.90;;;;;;5086326;28;20482;-83
2023/03/15 07:13:20;;;;;;;0.10;0.10;;;7.80;99.90;;;;;;5096150;28;20031;-85
2023/03/15 07:15:53;;;;;;;0.10;0.10;;;7.70;99.90;;;;;;5082996;28;20024;-85
2023/03/15 07:18:19;;;;;;;0.40;0.40;;;7.70;99.90;;;;;;5100957;28;20059;-85
2023/03/15 07:20:45;;;;;;;0.20;0.20;;;7.80;99.90;;;;;;5084616;28;20555;-82
2023/03/15 07:23:11;;;;;;;2.17;1.70;;;8.40;99.90;;;;;;5072390;28;20024;-83
2023/03/15 07:25:37;;;;;;;1.13;1.13;;;8.90;99.90;;;;;;5076403;28;20032;-83
2023/03/15 07:28:03;;;;;;;0.10;0.10;;;9.30;99.90;;;;;;5099043;28;20028;-85
2023/03/15 07:30:28;;;;;;;0.10;0.10;;;9.90;99.90;;;;;;5076677;28;20035;-83
2023/03/15 07:32:54;;;;;;;0.70;0.70;;;10.30;99.90;;;;;;5097344;28;20023;-86
2023/03/15 07:35:20;;;;;;;0.10;0.10;;;10.70;99.90;;;;;;5094934;28;20538;-85
2023/03/15 07:37:45;;;;;;;0.00;0.00;;;11.70;99.90;;;;;;5099917;28;20024;-85
2023/03/15 07:40:12;;;;;;;1.33;1.25;;;12.50;99.90;;;;;;5103048;28;20024;-83
2023/03/15 07:42:39;;;;;;;0.10;0.10;;;12.40;99.90;;;;;;5084986;28;20028;-84
2023/03/15 07:45:05;;;;;;;0.20;0.20;;;11.60;99.90;;;;;;5102472;28;20051;-87
2023/03/15 07:47:31;;;;;;;0.00;0.00;;;12.00;99.90;;;;;;5081663;28;20043;-84
2023/03/15 07:49:57;;;;;;;0.00;0.00;;;12.00;99.90;;;;;;5103055;28;20051;-85
2023/03/15 07:52:24;;;;;;;1.20;0.87;;;12.50;99.10;;;;;;5083673;28;20123;-85
2023/03/15 07:54:49;;;;;;;0.10;0.10;;;12.40;98.60;;;;;;5084418;28;20024;-86
2023/03/15 07:57:15;;;;;;;0.00;0.00;;;12.30;98.00;;;;;;5107478;27;20050;-84
2023/03/15 07:59:41;;;;;;;0.07;0.07;;;12.90;97.80;;;;;;5097040;28;20472;-85
2023/03/15 08:02:08;;;;;;;0.47;0.30;;;13.00;96.70;;;;;;5085016;28;20100;-83
2023/03/15 08:04:34;;;;;;;0.00;0.00;;;13.40;95.30;;;;;;5076935;28;20051;-86
2023/03/15 08:07:00;;;;;;;0.10;0.05;;;13.80;94.20;;;;;;5095827;28;20067;-84
2023/03/15 08:09:26;;;;;;;0.17;0.17;;;13.90;93.00;;;;;;5101670;28;20062;-87
2023/03/15 08:11:51;;;;;;;0.00;0.00;;;14.10;93.50;;;;;;5103243;28;20084;-82
2023/03/15 08:14:17;;;;;;;0.10;0.10;;;14.40;93.10;;;;;;5093147;28;20523;-85
2023/03/15 08:16:43;;;;;;;0.00;0.00;;;14.60;91.70;;;;;;5102689;28;20038;-85
2023/03/15 08:19:09;;;;;;;0.00;0.00;;;15.60;91.50;;;;;;5092930;28;20035;-84
2023/03/15 08:21:34;;;;;;;0.10;0.10;;;15.90;90.70;;;;;;5091242;28;20032;-86
2023/03/15 08:24:00;;;;;;;0.63;0.63;;;15.30;90.30;;;;;;5075028;28;20035;-85
2023/03/15 08:26:26;;;;;;;0.50;0.50;;;15.10;92.00;;;;;;5098376;28;20723;-87
2023/03/15 08:28:52;;;;;;;0.10;0.07;;;14.80;90.70;;;;;;5071518;28;20110;-84
2023/03/15 08:31:17;;;;;;;2.10;1.93;;;15.00;90.20;;;;;;5096014;28;20027;-86
2023/03/15 08:33:43;;;;;;;0.67;0.33;;;15.20;87.40;;;;;;5094944;28;20107;-83
2023/03/15 08:36:09;;;;;;;2.27;0.77;;;15.20;84.50;;;;;;5102366;28;20038;-83
2023/03/15 08:38:35;;;;;;;0.00;0.00;;;15.80;87.50;;;;;;5086141;28;20092;-86
2023/03/15 08:41:01;;;;;;;1.50;0.45;;;16.20;84.70;;;;;;5080246;28;20074;-86
2023/03/15 08:43:26;;;;;;;0.77;0.77;;;16.50;84.80;;;;;;5089327;28;20569;-87
2023/03/15 08:45:52;;;;;;;24.90;1.50;;;16.80;84.30;;;;;;5076109;28;20617;-86
2023/03/15 08:48:18;;;;;;;0.00;0.00;;;16.90;81.50;;;;;;5095698;28;20063;-84
2023/03/15 08:50:44;;;;;;;0.00;0.00;;;17.00;77.80;;;;;;5101337;28;20391;-84
2023/03/15 08:53:09;;;;;;;0.63;0.63;;;17.20;76.10;;;;;;5077779;28;20020;-87
2023/03/15 08:55:36;;;;;;;0.00;0.00;;;16.90;75.70;;;;;;5076086;28;20067;-85
2023/03/15 08:58:03;;;;;;;0.17;0.17;;;17.20;77.50;;;;;;5076190;28;20024;-81
2023/03/15 09:00:29;;;;;;;;;;;17.80;77.80;;;;;;5070704;28;20098;-84
2023/03/15 09:02:55;;;;;;;2.10;1.65;;;17.10;78.40;;;;;;5089366;28;19924;-82
2023/03/15 09:05:22;;;;;;;0.13;0.13;;;16.50;78.10;;;;;;5095038;28;20515;-87
2023/03/15 09:07:48;;;;;;;0.20;0.20;;;16.10;81.50;;;;;;5100604;28;20048;-85
2023/03/15 09:10:16;;;;;;;0.13;0.13;;;16.30;79.20;;;;;;5105558;28;20068;-84
2023/03/15 09:12:43;;;;;;;7.43;0.70;;;16.90;79.60;;;;;;5087348;28;20092;-84
2023/03/15 09:15:10;;;;;;;0.70;0.70;;;17.50;78.40;;;;;;5082305;28;20106;-86
2023/03/15 09:17:37;;;;;;;0.20;0.20;;;18.10;76.20;;;;;;5094334;28;20073;-86
2023/03/15 09:20:11;;;;;;;0.52;0.50;;;18.70;69.90;;;;;;5104511;28;20024;-83
2023/03/15 09:22:37;;;;;;;0.47;0.47;;;19.20;73.80;;;;;;5094047;28;20032;-85
2023/03/15 09:25:03;;;;;;;0.17;0.10;;;19.80;67.90;;;;;;5094809;28;20499;-85
2023/03/15 09:27:32;;;;;;;0.40;0.40;;;20.00;69.20;;;;;;5080483;28;20103;-84
2023/03/15 09:29:58;;;;;;;0.43;0.40;;;17.90;72.10;;;;;;5085139;28;20027;-84
2023/03/15 09:32:23;;;;;;;0.10;0.10;;;16.00;76.10;;;;;;5099123;28;20104;-83
2023/03/15 09:34:50;;;;;;;0.40;0.40;;;17.50;75.30;;;;;;5094824;28;20191;-85
2023/03/15 09:37:16;;;;;;;0.00;0.00;;;18.20;74.10;;;;;;5098710;28;20027;-85
2023/03/15 09:39:41;;;;;;;0.00;0.00;;;18.10;69.40;;;;;;5081379;28;20085;-85
2023/03/15 09:42:29;;;;;;;0.00;0.00;;;18.50;72.40;;;;;;5094890;28;20068;-86
2023/03/15 09:45:26;;;;;;;0.00;0.00;;;20.10;68.40;;;;;;5076534;28;20024;-87
2023/03/15 09:48:10;;;;;;;0.05;0.05;;;19.30;68.50;;;;;;5080145;28;20137;-84
2023/03/15 09:50:44;;;;;;;0.10;0.10;;;18.20;70.60;;;;;;5086263;28;20573;-86
2023/03/15 09:53:51;;;;;;;0.65;0.65;;;18.00;70.80;;;;;;5102175;28;20041;-85
2023/03/15 09:56:50;;;;;;;0.10;0.10;;;15.00;77.50;;;;;;5088626;28;20036;-84
2023/03/15 09:59:21;;;;;;;0.88;0.52;;;14.60;76.30;;;;;;5068024;28;20055;-85
2023/03/15 10:01:49;;;;;;;0.00;0.00;;;18.60;72.10;;;;;;5097512;27;20038;-87
2023/03/15 10:04:29;;;;;;;0.10;0.10;;;18.50;69.70;;;;;;5075218;28;20055;-85
2023/03/15 10:06:58;;;;;;;0.20;0.20;;;18.50;69.80;;;;;;5095754;28;20050;-83
2023/03/15 10:09:28;;;;;;;0.05;0.05;;;17.80;67.30;;;;;;5085100;28;20119;-85
2023/03/15 10:12:22;;;;;;;0.63;0.47;;;16.20;69.90;;;;;;5092210;28;20031;-83
2023/03/15 10:15:02;;;;;;;0.00;0.00;;;13.70;76.50;;;;;;5076598;28;20024;-84
2023/03/15 10:17:39;;;;;;;0.63;0.47;;;14.30;80.10;;;;;;5088980;28;20814;-82
2023/03/15 10:20:17;;;;;;;0.08;0.08;;;14.30;77.70;;;;;;5082460;28;20024;-84
2023/03/15 10:22:53;;;;;;;0.52;0.52;;;14.20;76.80;;;;;;5082349;28;20062;-84
2023/03/15 10:25:28;;;;;;;0.10;0.10;;;13.70;74.60;;;;;;5075191;28;20027;-85
2023/03/15 10:28:02;;;;;;;0.10;0.10;;;14.70;75.10;;;;;;5095267;27;20042;-84
2023/03/15 10:30:32;;;;;;;0.20;0.20;;;15.00;78.30;;;;;;5104423;28;20051;-82
2023/03/15 10:33:04;;;;;;;0.32;0.32;;;15.10;81.40;;;;;;5097450;28;20031;-83
2023/03/15 10:35:30;;;;;;;0.10;0.10;;;14.90;75.20;;;;;;5094558;28;20069;-84
2023/03/15 10:37:57;;;;;;;0.20;0.20;;;15.80;77.60;;;;;;5101304;28;20018;-86
2023/03/15 10:40:43;;;;;;;0.17;0.17;;;14.80;80.40;;;;;;5074524;28;20056;-84
2023/03/15 10:43:16;;;;;;;0.00;0.00;;;15.00;83.00;;;;;;5095568;28;20062;-82
2023/03/15 10:45:45;;;;;;;0.35;0.35;;;15.10;79.70;;;;;;5077131;28;20032;-84
2023/03/15 10:48:11;;;;;;;3.72;0.73;;;13.80;83.30;;;;;;5067328;28;20064;-84
2023/03/15 10:50:38;;;;;;;0.30;0.30;;;13.80;85.80;;;;;;5102759;28;20564;-85
2023/03/15 10:53:10;;;;;;;0.00;0.00;;;13.90;84.40;;;;;;5098555;28;20326;-83
2023/03/15 10:55:42;;;;;;;12.10;0.90;;;14.30;86.40;;;;;;5072319;28;20059;-84
2023/03/15 10:58:26;;;;;;;0.38;0.38;;;14.30;76.20;;;;;;5103428;28;20031;-84
2023/03/15 11:01:23;;;;;;;0.38;0.38;;;14.90;78.20;;;;;;5099537;28;20133;-87
2023/03/15 11:04:17;;;;;;;0.10;0.10;;;15.70;78.70;;;;;;5086596;28;20075;-83
2023/03/15 11:06:42;;;;;;;1.15;0.65;;;15.50;81.90;;;;;;5094657;28;20069;-83
2023/03/15 11:09:12;;;;;;;3.70;0.63;;;15.30;80.90;;;;;;5098417;28;20036;-83
2023/03/15 11:11:57;;;;;;;0.63;0.63;;;15.40;79.40;;;;;;5097407;28;20565;-82
2023/03/15 11:14:24;;;;;;;0.25;0.25;;;14.70;79.40;;;;;;5097824;28;20020;-83
2023/03/15 11:16:53;;;;;;;0.85;0.85;;;14.40;80.80;;;;;;5084949;28;20051;-85
2023/03/15 11:19:24;;;;;;;0.32;0.32;;;14.50;78.20;;;;;;5103309;28;20065;-86
2023/03/15 11:21:50;;;;;;;0.00;0.00;;;13.90;76.40;;;;;;5078991;28;20020;-85
2023/03/15 11:24:28;;;;;;;0.25;0.20;;;14.30;79.90;;;;;;5082600;28;20035;-85
2023/03/15 11:27:00;;;;;;;0.30;0.30;;;14.30;78.00;;;;;;5084326;28;20513;-83
2023/03/15 11:29:32;;;;;;;0.60;0.60;;;14.30;75.80;;;;;;5100324;28;20027;-85
2023/03/15 11:32:01;;;;;;;0.10;0.10;;;14.20;79.60;;;;;;5097357;28;20909;-82
2023/03/15 11:34:34;;;;;;;0.15;0.15;;;14.20;82.00;;;;;;5085269;28;20047;-86
2023/03/15 11:37:05;;;;;;;0.00;0.00;;;13.80;85.10;;;;;;5067491;28;20039;-86
2023/03/15 11:39:46;;;;;;;0.55;0.55;;;14.20;83.00;;;;;;5083672;28;20031;-86
2023/03/15 11:42:23;;;;;;;0.30;0.30;;;14.50;79.70;;;;;;5070203;28;20028;-85
2023/03/15 11:44:53;;;;;;;0.05;0.05;;;14.40;79.00;;;;;;5078990;28;20031;-84
2023/03/15 11:47:36;;;;;;;2.10;1.15;;;14.30;79.90;;;;;;5092398;28;20036;-86
2023/03/15 11:50:02;;;;;;;2.08;0.57;;;14.00;83.30;;;;;;5080747;28;20063;-85
2023/03/15 11:52:28;;;;;;;0.10;0.10;;;13.70;83.80;;;;;;5095688;28;20724;-86
2023/03/15 11:54:57;;;;;;;1.17;1.08;;;13.70;84.60;;;;;;5100208;28;20123;-86
2023/03/15 11:57:43;;;;;;;1.88;0.30;;;13.80;79.10;;;;;;5068129;28;20101;-84
2023/03/15 12:00:21;;;;;;;0.08;0.08;;;14.10;83.80;;;;;;5098578;28;20023;-86
2023/03/15 12:02:55;;;;;;;2.53;0.55;;;14.00;82.90;;;;;;5072784;28;20056;-84
2023/03/15 12:05:43;;;;;;;0.00;0.00;;;13.90;83.30;;;;;;5076158;28;20089;-85
2023/03/15 12:08:39;;;;;;;0.10;0.10;;;13.80;85.90;;;;;;5097264;28;20066;-85
2023/03/15 12:11:33;;;;;;;0.20;0.20;;;13.90;83.90;;;;;;5081272;28;20012;-84
2023/03/15 12:13:58;;;;;;;0.00;0.00;;;13.50;78.50;;;;;;5077840;28;20101;-83
2023/03/15 12:16:37;;;;;;;0.20;0.20;;;13.00;78.00;;;;;;5099512;28;20028;-83
2023/03/15 12:19:24;;;;;;;0.10;0.10;;;13.10;80.00;;;;;;5081197;28;20031;-83
2023/03/15 12:21:56;;;;;;;0.30;0.30;;;13.10;79.30;;;;;;5094638;28;20557;-85
2023/03/15 12:24:24;;;;;;;0.55;0.55;;;13.40;75.60;;;;;;5092167;28;20725;-85
2023/03/15 12:27:01;;;;;;;0.15;0.15;;;13.30;80.30;;;;;;5069229;28;20525;-84
2023/03/15 12:29:29;;;;;;;0.00;0.00;;;13.50;86.10;;;;;;5068228;28;20046;-85
2023/03/15 12:32:07;;;;;;;0.10;0.10;;;13.60;84.30;;;;;;5067534;28;20489;-86
2023/03/15 12:34:44;;;;;;;0.55;0.50;;;13.70;86.60;;;;;;5097328;28;20542;-84
2023/03/15 12:37:17;;;;;;;;;;;13.50;81.00;;;;;;5093673;28;20866;-84
2023/03/15 12:39:58;;;;;;;0.52;0.52;;;13.30;78.40;;;;;;5096340;28;20656;-81
2023/03/15 12:42:30;;;;;;;0.00;0.00;;;13.30;77.10;;;;;;5080420;28;20031;-84
2023/03/15 12:45:14;;;;;;;0.20;0.20;;;13.40;78.50;;;;;;5088541;28;20020;-86
2023/03/15 12:47:52;;;;;;;0.30;0.20;;;13.30;77.70;;;;;;5080942;28;20039;-85
2023/03/15 12:50:37;;;;;;;0.00;0.00;;;13.00;73.90;;;;;;5090947;28;21260;-84
2023/03/15 12:53:13;;;;;;;0.00;0.00;;;12.90;82.90;;;;;;5067596;28;20092;-85
2023/03/15 12:55:39;;;;;;;0.15;0.15;;;13.20;82.40;;;;;;5088269;28;20089;-82
2023/03/15 12:58:11;;;;;;;0.10;0.10;;;13.20;80.20;;;;;;5089068;28;20142;-84
2023/03/15 13:00:41;;;;;;;0.20;0.20;;;13.10;77.20;;;;;;5086014;28;20245;-84
2023/03/15 13:03:21;;;;;;;0.22;0.22;;;12.90;79.30;;;;;;5079793;28;20100;-88